createdAt,value
2023-03-23T15:57:58.056Z,15.20
2023-03-23T15:59:01.344Z,17.80
2023-03-23T16:00:04.788Z,20.40
2023-03-23T16:01:15.406Z,19.40
2023-03-23T16:02:21.721Z,16.30
2023-03-23T16:03:28.886Z,17.60
2023-03-23T16:04:32.489Z,17.00
2023-03-23T16:05:36.216Z,17.50
2023-03-23T16:06:39.422Z,19.10
2023-03-23T16:07:42.012Z,16.70
2023-03-23T16:08:44.325Z,18.40
2023-03-23T16:09:49.573Z,17.80
2023-03-23T16:10:52.350Z,17.90
2023-03-23T16:11:55.698Z,18.18
2023-03-23T16:12:58.023Z,17.00
2023-03-23T16:14:01.410Z,18.30
2023-03-23T16:15:04.803Z,18.50
2023-03-23T16:16:20.451Z,19.40
2023-03-23T16:17:22.912Z,18.20
2023-03-23T16:18:25.385Z,18.60
2023-03-23T16:19:28.922Z,18.80
2023-03-23T16:20:33.712Z,18.00
2023-03-23T16:21:36.680Z,19.90
2023-03-23T16:22:40.782Z,16.90
2023-03-23T16:23:45.463Z,19.82
2023-03-23T16:24:47.947Z,20.30
2023-03-23T16:25:50.914Z,19.80
2023-03-23T16:26:53.352Z,17.10
2023-03-23T16:27:57.186Z,18.90
2023-03-23T16:29:12.694Z,17.90
2023-03-23T16:30:25.965Z,19.70
2023-03-23T16:31:28.567Z,19.90
2023-03-23T16:32:30.861Z,19.00
2023-03-23T16:33:33.486Z,20.10
2023-03-23T16:34:36.501Z,20.80
2023-03-23T16:35:39.248Z,15.36
2023-03-23T16:36:42.265Z,21.00
2023-03-23T16:37:50.536Z,20.80
2023-03-23T16:38:54.666Z,21.50
2023-03-23T16:39:57.684Z,20.20
2023-03-23T16:41:00.159Z,4.30
2023-03-23T16:42:03.940Z,19.40
2023-03-23T16:43:09.309Z,18.10
2023-03-23T16:44:11.431Z,20.30
2023-03-23T16:45:15.525Z,20.20
2023-03-23T16:46:18.832Z,20.20
2023-03-23T16:47:24.498Z,20.50
2023-03-23T16:48:27.246Z,21.00
2023-03-23T16:49:29.793Z,21.30
2023-03-23T16:50:33.293Z,20.20
2023-03-23T16:51:36.658Z,19.70
2023-03-23T16:52:46.204Z,20.90
2023-03-23T16:53:46.466Z,20.30
2023-03-23T16:54:49.688Z,19.80
2023-03-23T16:55:52.516Z,21.30
2023-03-23T16:56:55.166Z,20.00
2023-03-23T16:58:12.896Z,20.80
2023-03-23T16:59:02.477Z,21.60
2023-03-23T17:00:08.395Z,20.00
2023-03-23T17:01:11.139Z,20.10
2023-03-23T17:02:13.740Z,20.91
2023-03-23T17:03:18.993Z,22.20
2023-03-23T17:04:21.186Z,20.70
2023-03-23T17:05:27.177Z,22.33
2023-03-23T17:06:30.706Z,22.80
2023-03-23T17:07:32.932Z,22.50
2023-03-23T17:08:36.386Z,23.90
2023-03-23T17:09:41.058Z,24.50
2023-03-23T17:10:44.733Z,23.40
2023-03-23T17:11:47.500Z,23.60
2023-03-23T17:12:49.786Z,24.40
2023-03-23T17:13:52.346Z,24.90
2023-03-23T17:14:54.628Z,23.40
2023-03-23T17:15:56.853Z,23.60
2023-03-23T17:17:00.243Z,23.70
2023-03-23T17:18:03.817Z,24.70
2023-03-23T17:19:07.255Z,23.90
2023-03-23T17:20:11.463Z,22.90
2023-03-23T17:21:13.830Z,24.70
2023-03-23T17:22:17.327Z,24.80
2023-03-23T17:23:20.267Z,21.00
2023-03-23T17:24:22.759Z,23.73
2023-03-23T17:25:25.884Z,23.60
2023-03-23T17:26:28.179Z,24.80
2023-03-23T17:27:30.607Z,24.20
2023-03-23T17:28:33.921Z,24.00
2023-03-23T17:29:36.332Z,24.20
2023-03-23T17:30:45.358Z,24.40
2023-03-23T17:31:49.174Z,22.50
2023-03-23T17:32:54.067Z,22.70
2023-03-23T17:33:57.833Z,23.20
2023-03-23T17:35:01.283Z,22.80
2023-03-23T17:36:04.043Z,21.50
2023-03-23T17:37:07.267Z,22.36
2023-03-23T17:38:10.092Z,21.00
2023-03-23T17:39:13.308Z,18.70
2023-03-23T17:40:20.112Z,22.20
2023-03-23T17:41:24.078Z,21.10
2023-03-23T17:42:26.596Z,21.20
2023-03-23T17:43:29.452Z,18.50
2023-03-23T17:44:31.974Z,18.18
2023-03-23T17:45:35.518Z,20.60
2023-03-23T17:46:38.302Z,21.90
2023-03-23T17:47:40.750Z,21.60
2023-03-23T17:48:46.231Z,21.50
2023-03-23T17:49:48.701Z,20.70
2023-03-23T17:50:54.862Z,19.10
2023-03-23T17:51:58.585Z,21.80
2023-03-23T17:53:02.072Z,20.90
2023-03-23T17:54:05.325Z,19.30
2023-03-23T17:55:08.544Z,20.90
2023-03-23T17:56:13.281Z,21.40
2023-03-23T17:57:17.206Z,20.40
2023-03-23T17:58:20.853Z,21.40
2023-03-23T17:59:26.753Z,18.20
2023-03-23T18:00:29.347Z,22.40
2023-03-23T18:01:34.006Z,20.30
2023-03-23T18:02:37.740Z,21.00
2023-03-23T18:04:52.800Z,21.10
2023-03-23T18:06:01.595Z,22.30
2023-03-23T18:07:04.080Z,21.90
2023-03-23T18:08:07.889Z,21.30
2023-03-23T18:09:10.527Z,21.40
2023-03-23T18:10:15.678Z,21.40
2023-03-23T18:11:18.598Z,22.30
2023-03-23T18:12:20.996Z,20.00
2023-03-23T18:13:26.119Z,22.60
2023-03-23T18:14:28.526Z,23.50
2023-03-23T18:15:33.023Z,24.00
2023-03-23T18:16:36.363Z,23.00
2023-03-23T18:17:39.802Z,22.90
2023-03-23T18:18:42.615Z,23.60
2023-03-23T18:19:47.098Z,22.60
2023-03-23T18:21:00.521Z,23.40
2023-03-23T18:22:02.753Z,22.40
2023-03-23T18:23:06.730Z,24.10
2023-03-23T18:24:10.338Z,24.90
2023-03-23T18:25:13.130Z,25.10
2023-03-23T18:26:17.884Z,23.50
2023-03-23T18:27:20.533Z,24.80
2023-03-23T18:28:24.902Z,25.91
2023-03-23T18:29:27.237Z,25.70
2023-03-23T18:30:29.997Z,25.70
2023-03-23T18:31:32.395Z,26.10
2023-03-23T18:32:40.066Z,24.80
2023-03-23T18:33:46.652Z,24.60
2023-03-23T18:34:49.946Z,24.50
2023-03-23T18:36:00.177Z,24.70
2023-03-23T18:37:04.369Z,23.30
2023-03-23T18:38:06.770Z,25.50
2023-03-23T18:39:14.454Z,24.50
2023-03-23T18:40:19.024Z,24.10
2023-03-23T18:41:21.370Z,23.80
2023-03-23T18:42:24.242Z,23.50
2023-03-23T18:43:27.637Z,25.60
2023-03-23T18:44:30.358Z,23.40
2023-03-23T18:45:33.127Z,23.60
2023-03-23T18:46:37.743Z,24.30
2023-03-23T18:47:40.875Z,25.70
2023-03-23T18:48:43.288Z,24.45
2023-03-23T18:49:47.955Z,24.60
2023-03-23T18:50:53.832Z,23.80
2023-03-23T18:51:57.685Z,23.70
2023-03-23T18:53:01.151Z,23.40
2023-03-23T18:54:04.447Z,24.20
2023-03-23T18:55:07.966Z,11.10
2023-03-23T18:56:16.154Z,24.50
2023-03-23T18:57:20.876Z,23.20
2023-03-23T18:58:23.254Z,23.60
2023-03-23T18:59:27.824Z,23.20
2023-03-23T19:00:30.322Z,25.10
2023-03-23T19:01:33.464Z,23.90
2023-03-23T19:02:38.337Z,20.27
2023-03-23T19:03:42.087Z,24.90
2023-03-23T19:06:01.309Z,24.20
2023-03-23T19:07:03.907Z,22.70
2023-03-23T19:08:07.650Z,24.80
2023-03-23T19:09:10.038Z,22.30
2023-03-23T19:10:13.592Z,23.45
2023-03-23T19:11:17.237Z,21.50
2023-03-23T19:12:22.414Z,22.90
2023-03-23T19:13:25.831Z,22.80
2023-03-23T19:14:28.549Z,23.30
2023-03-23T19:15:30.993Z,22.36
2023-03-23T19:16:35.673Z,23.80
2023-03-23T19:17:40.257Z,22.30
2023-03-23T19:18:43.760Z,24.60
2023-03-23T19:19:46.174Z,20.00
2023-03-23T19:21:55.930Z,24.10
2023-03-23T19:22:59.300Z,24.10
2023-03-23T19:24:02.372Z,23.40
2023-03-23T19:25:07.229Z,24.09
2023-03-23T19:26:13.669Z,24.40
2023-03-23T19:27:17.358Z,23.80
2023-03-23T19:29:27.362Z,24.30
2023-03-23T19:30:31.344Z,24.70
2023-03-23T19:31:35.026Z,26.00
2023-03-23T19:32:38.226Z,25.50
2023-03-23T19:33:40.483Z,24.55
2023-03-23T19:34:43.482Z,26.30
2023-03-23T19:35:50.637Z,24.90
2023-03-23T19:37:03.314Z,25.70
2023-03-23T19:38:00.107Z,23.70
2023-03-23T19:39:04.300Z,23.00
2023-03-23T19:40:24.745Z,23.40
2023-03-23T19:41:14.060Z,24.90
2023-03-23T19:42:19.614Z,25.10
2023-03-23T19:43:22.619Z,25.30
2023-03-23T19:44:25.779Z,25.30
2023-03-23T19:45:28.807Z,24.70
2023-03-23T19:46:32.875Z,24.90
2023-03-23T19:47:35.741Z,26.20
2023-03-23T19:48:39.984Z,23.18
2023-03-23T19:49:42.906Z,24.20
2023-03-23T19:50:49.212Z,25.45
2023-03-23T19:52:08.340Z,24.50
2023-03-23T19:52:59.538Z,26.40
2023-03-23T19:54:03.181Z,24.60
2023-03-23T19:55:06.863Z,24.90
2023-03-23T19:56:15.018Z,24.80
2023-03-23T19:57:17.376Z,24.00
2023-03-23T19:58:20.900Z,26.20
2023-03-23T19:59:23.980Z,24.80
2023-03-23T20:00:29.504Z,26.20
2023-03-23T20:01:32.185Z,24.80
2023-03-23T20:02:38.927Z,25.70
2023-03-23T20:03:42.433Z,24.50
2023-03-23T20:04:46.199Z,25.80
2023-03-23T20:05:49.507Z,25.50
2023-03-23T20:06:52.781Z,26.70
2023-03-23T20:07:55.462Z,26.10
2023-03-23T20:09:00.058Z,26.27
2023-03-23T20:10:02.471Z,25.00
2023-03-23T20:11:08.001Z,27.10
2023-03-23T20:12:10.293Z,27.90
2023-03-23T20:13:13.227Z,27.90
2023-03-23T20:14:16.044Z,27.82
2023-03-23T20:15:18.471Z,27.55
2023-03-23T20:16:21.856Z,22.60
2023-03-23T20:17:26.330Z,26.30
2023-03-23T20:18:29.884Z,26.70
2023-03-23T20:19:33.065Z,27.20
2023-03-23T20:20:35.702Z,28.18
2023-03-23T20:21:39.158Z,27.10
2023-03-23T20:22:43.239Z,27.10
2023-03-23T20:23:48.849Z,28.60
2023-03-23T20:24:51.962Z,23.30
2023-03-23T20:26:00.493Z,27.80
2023-03-23T20:27:03.363Z,26.60
2023-03-23T20:28:06.216Z,28.80
2023-03-23T20:29:09.291Z,26.60
2023-03-23T20:30:13.702Z,26.10
2023-03-23T20:31:24.270Z,28.50
2023-03-23T20:32:29.858Z,23.10
2023-03-23T20:33:34.229Z,27.60
2023-03-23T20:34:38.513Z,27.80
2023-03-23T20:35:40.805Z,27.90
2023-03-23T20:36:45.885Z,26.70
2023-03-23T20:37:51.049Z,25.70
2023-03-23T20:38:53.390Z,25.30
2023-03-23T20:39:55.732Z,27.60
2023-03-23T20:40:59.106Z,27.40
2023-03-23T20:42:05.712Z,27.00
2023-03-23T20:43:10.722Z,26.10
2023-03-23T20:44:14.905Z,28.80
2023-03-23T20:45:19.540Z,26.00
2023-03-23T20:46:22.956Z,24.90
2023-03-23T20:47:27.159Z,26.40
2023-03-23T20:48:34.115Z,28.70
2023-03-23T20:49:37.823Z,26.30
2023-03-23T20:50:41.876Z,27.40
2023-03-23T20:51:46.736Z,26.20
2023-03-23T20:52:50.251Z,28.30
2023-03-23T20:53:52.653Z,29.00
2023-03-23T20:54:55.714Z,25.10
2023-03-23T20:56:01.344Z,26.60
2023-03-23T20:57:04.126Z,28.50
2023-03-23T20:58:07.942Z,24.91
2023-03-23T20:59:10.612Z,22.80
2023-03-23T21:00:17.312Z,29.60
2023-03-23T21:01:22.021Z,28.30
2023-03-23T21:02:25.965Z,29.00
2023-03-23T21:03:31.752Z,29.00
2023-03-23T21:04:36.092Z,24.10
2023-03-23T21:05:42.169Z,26.50
2023-03-23T21:06:46.367Z,27.70
2023-03-23T21:07:50.334Z,28.00
2023-03-23T21:08:52.842Z,25.40
2023-03-23T21:09:56.034Z,4.10
2023-03-23T21:10:59.184Z,30.20
2023-03-23T21:12:06.860Z,27.30
2023-03-23T21:13:11.821Z,27.80
2023-03-23T21:14:15.985Z,29.50
2023-03-23T21:15:19.365Z,26.70
2023-03-23T21:16:24.136Z,27.50
2023-03-23T21:17:27.059Z,28.50
2023-03-23T21:18:31.678Z,29.30
2023-03-23T21:19:34.764Z,29.10
2023-03-23T21:20:38.073Z,29.80
2023-03-23T21:21:55.923Z,28.20
2023-03-23T21:22:47.683Z,29.60
2023-03-23T21:23:52.049Z,29.20
2023-03-23T21:24:54.679Z,30.30
2023-03-23T21:26:02.972Z,29.70
2023-03-23T21:27:06.962Z,29.10
2023-03-23T21:28:10.398Z,29.80
2023-03-23T21:29:15.674Z,23.30
2023-03-23T21:30:20.392Z,24.40
2023-03-23T21:31:22.729Z,29.50
2023-03-23T21:32:26.979Z,30.30
2023-03-23T21:33:29.170Z,29.50
2023-03-23T21:34:31.397Z,30.40
2023-03-23T21:35:34.882Z,30.60
2023-03-23T21:36:37.911Z,30.40
2023-03-23T21:37:42.144Z,31.00
2023-03-23T21:38:45.552Z,29.00
2023-03-23T21:39:47.858Z,30.50
2023-03-23T21:40:50.306Z,30.60
2023-03-23T21:41:53.021Z,30.20
2023-03-23T21:42:55.464Z,31.20
2023-03-23T21:43:58.087Z,30.00
2023-03-23T21:45:02.143Z,28.90
2023-03-23T21:46:08.191Z,28.20
2023-03-23T21:47:12.485Z,28.30
2023-03-23T21:48:15.914Z,28.70
2023-03-23T21:49:18.479Z,29.50
2023-03-23T21:50:22.700Z,29.50
2023-03-23T21:51:28.169Z,26.50
2023-03-23T21:52:31.840Z,26.80
2023-03-23T21:53:36.282Z,27.60
2023-03-23T21:54:40.574Z,26.40
2023-03-23T21:55:45.813Z,28.40
2023-03-23T21:56:48.455Z,29.10
2023-03-23T21:57:52.071Z,28.70
2023-03-23T21:58:56.694Z,29.70
2023-03-23T21:59:58.919Z,29.40
2023-03-23T22:01:02.890Z,30.00
2023-03-23T22:02:06.892Z,26.70
2023-03-23T22:03:09.323Z,26.90
2023-03-23T22:04:11.762Z,29.20
2023-03-23T22:05:15.295Z,31.30
2023-03-23T22:06:22.749Z,30.60
2023-03-23T22:07:28.763Z,30.10
2023-03-23T22:08:33.540Z,30.40
2023-03-23T22:09:36.917Z,30.20
2023-03-23T22:11:00.360Z,30.80
2023-03-23T22:11:49.290Z,28.80
2023-03-23T22:12:53.648Z,29.27
2023-03-23T22:13:59.176Z,30.00
2023-03-23T22:15:02.842Z,26.80
2023-03-23T22:16:09.194Z,30.00
2023-03-23T22:17:12.728Z,30.10
2023-03-23T22:18:16.355Z,28.50
2023-03-23T22:19:20.083Z,27.70
2023-03-23T22:20:22.497Z,29.30
2023-03-23T22:21:26.959Z,28.90
2023-03-23T22:22:29.375Z,27.70
2023-03-23T22:23:31.733Z,29.70
2023-03-23T22:24:35.085Z,29.70
2023-03-23T22:25:37.971Z,31.30
2023-03-23T22:26:41.234Z,28.20
2023-03-23T22:27:45.958Z,30.00
2023-03-23T22:28:50.854Z,27.50
2023-03-23T22:29:53.317Z,28.30
2023-03-23T22:31:03.450Z,26.80
2023-03-23T22:32:06.218Z,28.30
2023-03-23T22:33:08.572Z,28.09
2023-03-23T22:34:11.897Z,30.30
2023-03-23T22:35:14.291Z,30.00
2023-03-23T22:36:18.207Z,29.30
2023-03-23T22:37:21.252Z,26.80
2023-03-23T22:38:24.423Z,29.73
2023-03-23T22:39:26.864Z,29.90
2023-03-23T22:40:31.867Z,26.50
2023-03-23T22:41:37.373Z,23.10
2023-03-23T22:42:40.601Z,29.10
2023-03-23T22:43:43.212Z,29.80
2023-03-23T22:44:46.787Z,32.70
2023-03-23T22:45:54.328Z,30.80
2023-03-23T22:46:56.877Z,31.40
2023-03-23T22:47:59.270Z,31.20
2023-03-23T22:49:01.710Z,29.40
2023-03-23T22:50:09.750Z,30.40
2023-03-23T22:51:14.522Z,29.50
2023-03-23T22:52:17.693Z,29.90
2023-03-23T22:53:21.398Z,26.60
2023-03-23T22:54:23.983Z,29.40
2023-03-23T22:55:26.574Z,30.50
2023-03-23T22:56:31.777Z,30.50
2023-03-23T22:57:35.409Z,29.50
2023-03-23T22:58:37.965Z,29.70
2023-03-23T22:59:40.347Z,29.00
2023-03-23T23:00:52.698Z,30.00
2023-03-23T23:01:55.632Z,27.90
2023-03-23T23:02:58.072Z,28.55
2023-03-23T23:04:02.160Z,29.60
2023-03-23T23:05:05.436Z,30.20
2023-03-23T23:06:10.774Z,25.40
2023-03-23T23:07:13.885Z,26.90
2023-03-23T23:08:18.381Z,28.60
2023-03-23T23:09:21.614Z,28.60
2023-03-23T23:10:24.045Z,26.20
2023-03-23T23:11:26.511Z,17.70
2023-03-23T23:12:31.183Z,25.40
2023-03-23T23:13:33.722Z,28.60
2023-03-23T23:14:37.072Z,26.00
2023-03-23T23:15:45.420Z,28.30
2023-03-23T23:16:48.171Z,28.30
2023-03-23T23:17:50.758Z,29.00
2023-03-23T23:18:54.014Z,29.40
2023-03-23T23:19:56.931Z,24.70
2023-03-23T23:21:01.165Z,26.55
2023-03-23T23:22:16.140Z,28.70
2023-03-23T23:23:10.823Z,27.90
2023-03-23T23:24:13.231Z,27.90
2023-03-23T23:25:15.930Z,27.30
2023-03-23T23:26:19.361Z,27.36
2023-03-23T23:27:21.894Z,29.73
2023-03-23T23:28:24.474Z,27.50
2023-03-23T23:29:27.947Z,26.10
2023-03-23T23:30:31.605Z,26.90
2023-03-23T23:31:34.365Z,28.00
2023-03-23T23:32:37.161Z,28.80
2023-03-23T23:33:39.883Z,22.45
2023-03-23T23:34:42.269Z,27.40
2023-03-23T23:35:44.994Z,26.50
2023-03-23T23:36:48.671Z,24.91
2023-03-23T23:37:51.196Z,27.60
2023-03-23T23:38:53.836Z,28.10
2023-03-23T23:39:56.066Z,27.70
2023-03-23T23:40:58.822Z,28.40
2023-03-23T23:42:01.092Z,32.70
2023-03-23T23:43:04.150Z,29.30
2023-03-23T23:44:06.863Z,30.45
2023-03-23T23:45:10.331Z,31.27
2023-03-23T23:46:13.404Z,28.70
2023-03-23T23:47:16.439Z,29.18
2023-03-23T23:48:18.805Z,21.70
2023-03-23T23:49:22.461Z,27.50
2023-03-23T23:50:25.815Z,20.80
2023-03-23T23:51:29.555Z,26.50
2023-03-23T23:52:31.788Z,21.70
2023-03-23T23:53:34.027Z,24.00
2023-03-23T23:54:37.097Z,24.90
2023-03-23T23:55:43.657Z,27.82
2023-03-23T23:56:53.261Z,23.30
2023-03-23T23:57:56.572Z,24.40
2023-03-23T23:58:58.973Z,26.09
